Atwater, Minnesota
Current Conditions -  °F | °C
As of 12:13 PM on Saturday 25 Oct 2014 (Local Time) from KLJF Reporting Station
Clear Clear  
Wind Chill: 61°   Ceiling: Unl
Heat Index: 61°   Visibility: 10mi
Dew Point: 28°   Wind: 17mph
Humidity: 29%   Direction: 300°WNW
Pressure: 30.1"   Gusts: 23mph
Location:  45.14°N, 94.78°W
Report Text: KLJF 251713Z AUTO 30015G20KT 10SM CLR 16/M02 A3010 RMK AO2
Loading
Personal Weather Stations






























Interactive Weather Map
Tropical Storm Tracking
New forecast layout! Learn more

10-Day Weather Forecast

Advertisements
Track Severe Weather on mobile